sensor_id;sensor_type;location;lat;lon;timestamp;P1;durP1;ratioP1;P2;durP2;ratioP2
26718;SDS011;14326;50.794;6.060;2024-01-30T00:01:36;19.58;;;6.18;;
26718;SDS011;14326;50.794;6.060;2024-01-30T00:04:03;17.58;;;5.90;;
26718;SDS011;14326;50.794;6.060;2024-01-30T00:06:29;17.95;;;5.68;;
26718;SDS011;14326;50.794;6.060;2024-01-30T00:08:56;18.17;;;6.00;;
26718;SDS011;14326;50.794;6.060;2024-01-30T00:11:23;17.08;;;5.57;;
26718;SDS011;14326;50.794;6.060;2024-01-30T00:13:52;21.08;;;6.63;;
26718;SDS011;14326;50.794;6.060;2024-01-30T00:16:20;16.33;;;5.70;;
26718;SDS011;14326;50.794;6.060;2024-01-30T00:18:47;14.02;;;5.10;;
26718;SDS011;14326;50.794;6.060;2024-01-30T00:21:13;20.20;;;5.82;;
26718;SDS011;14326;50.794;6.060;2024-01-30T00:23:40;16.70;;;5.93;;
26718;SDS011;14326;50.794;6.060;2024-01-30T00:26:07;16.73;;;5.75;;
26718;SDS011;14326;50.794;6.060;2024-01-30T00:28:33;16.40;;;5.93;;
26718;SDS011;14326;50.794;6.060;2024-01-30T00:31:01;19.98;;;6.15;;
26718;SDS011;14326;50.794;6.060;2024-01-30T00:33:28;17.88;;;5.38;;
26718;SDS011;14326;50.794;6.060;2024-01-30T00:35:54;16.48;;;5.88;;
26718;SDS011;14326;50.794;6.060;2024-01-30T00:38:21;18.73;;;5.78;;
26718;SDS011;14326;50.794;6.060;2024-01-30T00:40:48;17.20;;;5.70;;
26718;SDS011;14326;50.794;6.060;2024-01-30T00:43:14;19.17;;;6.28;;
26718;SDS011;14326;50.794;6.060;2024-01-30T00:45:41;15.50;;;5.63;;
26718;SDS011;14326;50.794;6.060;2024-01-30T00:48:10;17.70;;;5.28;;
26718;SDS011;14326;50.794;6.060;2024-01-30T00:50:37;17.35;;;5.57;;
26718;SDS011;14326;50.794;6.060;2024-01-30T00:53:03;17.20;;;6.00;;
26718;SDS011;14326;50.794;6.060;2024-01-30T00:55:30;19.65;;;5.50;;
26718;SDS011;14326;50.794;6.060;2024-01-30T00:57:57;15.88;;;5.68;;
26718;SDS011;14326;50.794;6.060;2024-01-30T01:00:23;19.35;;;5.28;;
26718;SDS011;14326;50.794;6.060;2024-01-30T01:02:54;15.45;;;5.35;;
26718;SDS011;14326;50.794;6.060;2024-01-30T01:05:22;15.10;;;5.00;;
26718;SDS011;14326;50.794;6.060;2024-01-30T01:07:48;16.67;;;5.78;;
26718;SDS011;14326;50.794;6.060;2024-01-30T01:10:16;19.67;;;5.45;;
26718;SDS011;14326;50.794;6.060;2024-01-30T01:12:43;14.52;;;4.82;;
26718;SDS011;14326;50.794;6.060;2024-01-30T01:15:09;15.90;;;4.70;;
26718;SDS011;14326;50.794;6.060;2024-01-30T01:17:36;13.85;;;4.90;;
26718;SDS011;14326;50.794;6.060;2024-01-30T01:20:03;15.30;;;5.28;;
26718;SDS011;14326;50.794;6.060;2024-01-30T01:22:32;14.07;;;4.50;;
26718;SDS011;14326;50.794;6.060;2024-01-30T01:24:59;14.38;;;4.60;;
26718;SDS011;14326;50.794;6.060;2024-01-30T01:27:26;15.63;;;5.05;;
26718;SDS011;14326;50.794;6.060;2024-01-30T01:29:53;16.45;;;4.57;;
26718;SDS011;14326;50.794;6.060;2024-01-30T01:32:20;15.77;;;5.25;;
26718;SDS011;14326;50.794;6.060;2024-01-30T01:34:46;17.48;;;5.13;;
26718;SDS011;14326;50.794;6.060;2024-01-30T01:37:13;14.32;;;4.80;;
26718;SDS011;14326;50.794;6.060;2024-01-30T01:39:41;16.17;;;4.80;;
26718;SDS011;14326;50.794;6.060;2024-01-30T01:42:07;13.85;;;4.57;;
26718;SDS011;14326;50.794;6.060;2024-01-30T01:44:34;16.38;;;4.78;;
26718;SDS011;14326;50.794;6.060;2024-01-30T01:47:00;16.05;;;5.03;;
26718;SDS011;14326;50.794;6.060;2024-01-30T01:49:27;16.08;;;4.88;;
26718;SDS011;14326;50.794;6.060;2024-01-30T01:51:55;16.02;;;5.15;;
26718;SDS011;14326;50.794;6.060;2024-01-30T01:54:23;16.25;;;4.72;;
26718;SDS011;14326;50.794;6.060;2024-01-30T01:56:51;14.88;;;5.05;;
26718;SDS011;14326;50.794;6.060;2024-01-30T01:59:19;15.25;;;5.03;;
26718;SDS011;14326;50.794;6.060;2024-01-30T02:01:46;15.52;;;4.78;;
26718;SDS011;14326;50.794;6.060;2024-01-30T02:16:13;10.68;;;4.38;;
26718;SDS011;14326;50.794;6.060;2024-01-30T02:18:40;14.52;;;5.13;;
26718;SDS011;14326;50.794;6.060;2024-01-30T02:21:09;13.65;;;4.80;;
26718;SDS011;14326;50.794;6.060;2024-01-30T02:23:36;15.30;;;5.35;;
26718;SDS011;14326;50.794;6.060;2024-01-30T02:26:04;15.88;;;4.40;;
26718;SDS011;14326;50.794;6.060;2024-01-30T02:28:30;15.98;;;5.03;;
26718;SDS011;14326;50.794;6.060;2024-01-30T02:30:57;13.90;;;5.05;;
26718;SDS011;14326;50.794;6.060;2024-01-30T02:33:23;14.70;;;4.82;;
26718;SDS011;14326;50.794;6.060;2024-01-30T02:35:50;15.43;;;4.47;;
26718;SDS011;14326;50.794;6.060;2024-01-30T02:38:18;11.52;;;4.20;;
26718;SDS011;14326;50.794;6.060;2024-01-30T02:40:44;14.38;;;4.78;;
26718;SDS011;14326;50.794;6.060;2024-01-30T02:43:11;15.20;;;4.65;;
26718;SDS011;14326;50.794;6.060;2024-01-30T02:45:38;13.00;;;4.78;;
26718;SDS011;14326;50.794;6.060;2024-01-30T02:48:05;13.05;;;4.03;;
26718;SDS011;14326;50.794;6.060;2024-01-30T02:50:32;14.32;;;4.50;;
26718;SDS011;14326;50.794;6.060;2024-01-30T02:52:58;15.77;;;4.80;;
26718;SDS011;14326;50.794;6.060;2024-01-30T02:55:26;14.88;;;4.55;;
26718;SDS011;14326;50.794;6.060;2024-01-30T02:57:53;13.30;;;4.63;;
26718;SDS011;14326;50.794;6.060;2024-01-30T03:00:20;12.63;;;4.15;;
26718;SDS011;14326;50.794;6.060;2024-01-30T03:02:46;14.88;;;4.55;;
26718;SDS011;14326;50.794;6.060;2024-01-30T03:05:13;14.10;;;4.43;;
26718;SDS011;14326;50.794;6.060;2024-01-30T03:07:39;15.25;;;4.57;;
26718;SDS011;14326;50.794;6.060;2024-01-30T03:10:06;16.13;;;4.90;;
26718;SDS011;14326;50.794;6.060;2024-01-30T03:12:35;12.32;;;4.68;;
26718;SDS011;14326;50.794;6.060;2024-01-30T03:15:01;14.75;;;4.65;;
26718;SDS011;14326;50.794;6.060;2024-01-30T03:17:28;13.77;;;4.43;;
26718;SDS011;14326;50.794;6.060;2024-01-30T03:19:55;12.93;;;4.15;;
26718;SDS011;14326;50.794;6.060;2024-01-30T03:22:21;14.93;;;4.10;;
26718;SDS011;14326;50.794;6.060;2024-01-30T03:24:48;17.67;;;4.85;;
26718;SDS011;14326;50.794;6.060;2024-01-30T03:27:15;12.75;;;4.22;;
26718;SDS011;14326;50.794;6.060;2024-01-30T03:29:43;16.63;;;5.18;;
26718;SDS011;14326;50.794;6.060;2024-01-30T03:32:10;11.60;;;4.43;;
26718;SDS011;14326;50.794;6.060;2024-01-30T03:34:36;12.88;;;4.30;;
26718;SDS011;14326;50.794;6.060;2024-01-30T03:37:03;14.25;;;4.80;;
26718;SDS011;14326;50.794;6.060;2024-01-30T03:39:30;15.10;;;4.63;;
26718;SDS011;14326;50.794;6.060;2024-01-30T03:41:56;14.75;;;4.50;;
26718;SDS011;14326;50.794;6.060;2024-01-30T03:44:23;15.02;;;4.95;;
26718;SDS011;14326;50.794;6.060;2024-01-30T03:46:51;15.23;;;4.68;;
26718;SDS011;14326;50.794;6.060;2024-01-30T03:49:18;14.52;;;4.75;;
26718;SDS011;14326;50.794;6.060;2024-01-30T03:51:44;15.38;;;4.68;;
26718;SDS011;14326;50.794;6.060;2024-01-30T03:54:12;14.23;;;4.45;;
26718;SDS011;14326;50.794;6.060;2024-01-30T03:56:39;13.50;;;4.68;;
26718;SDS011;14326;50.794;6.060;2024-01-30T03:59:05;17.05;;;4.38;;
26718;SDS011;14326;50.794;6.060;2024-01-30T04:01:32;15.38;;;4.43;;
26718;SDS011;14326;50.794;6.060;2024-01-30T04:04:00;13.05;;;4.68;;
26718;SDS011;14326;50.794;6.060;2024-01-30T04:06:27;15.68;;;4.97;;
26718;SDS011;14326;50.794;6.060;2024-01-30T04:08:53;15.32;;;4.90;;
26718;SDS011;14326;50.794;6.060;2024-01-30T04:11:20;13.02;;;4.35;;
26718;SDS011;14326;50.794;6.060;2024-01-30T04:13:46;15.40;;;4.88;;
26718;SDS011;14326;50.794;6.060;2024-01-30T04:16:19;13.98;;;4.10;;
26718;SDS011;14326;50.794;6.060;2024-01-30T04:18:47;14.43;;;4.70;;
26718;SDS011;14326;50.794;6.060;2024-01-30T04:21:15;14.48;;;4.75;;
26718;SDS011;14326;50.794;6.060;2024-01-30T04:23:41;14.52;;;4.88;;
26718;SDS011;14326;50.794;6.060;2024-01-30T04:26:08;15.48;;;4.88;;
26718;SDS011;14326;50.794;6.060;2024-01-30T04:28:34;19.02;;;4.93;;
26718;SDS011;14326;50.794;6.060;2024-01-30T04:31:01;15.55;;;4.70;;
26718;SDS011;14326;50.794;6.060;2024-01-30T04:33:27;14.50;;;4.85;;
26718;SDS011;14326;50.794;6.060;2024-01-30T04:35:54;14.68;;;4.55;;
26718;SDS011;14326;50.794;6.060;2024-01-30T04:38:22;14.65;;;4.55;;
26718;SDS011;14326;50.794;6.060;2024-01-30T04:40:49;15.88;;;4.60;;
26718;SDS011;14326;50.794;6.060;2024-01-30T04:43:15;15.30;;;4.90;;
26718;SDS011;14326;50.794;6.060;2024-01-30T04:45:42;16.77;;;4.50;;
26718;SDS011;14326;50.794;6.060;2024-01-30T04:48:08;14.63;;;5.10;;
26718;SDS011;14326;50.794;6.060;2024-01-30T04:50:35;16.10;;;4.97;;
26718;SDS011;14326;50.794;6.060;2024-01-30T04:53:02;15.50;;;4.43;;
26718;SDS011;14326;50.794;6.060;2024-01-30T04:55:30;12.20;;;4.22;;
26718;SDS011;14326;50.794;6.060;2024-01-30T04:57:56;14.13;;;4.88;;
26718;SDS011;14326;50.794;6.060;2024-01-30T05:00:23;15.55;;;4.75;;
26718;SDS011;14326;50.794;6.060;2024-01-30T05:02:49;14.10;;;4.55;;
26718;SDS011;14326;50.794;6.060;2024-01-30T05:05:16;15.07;;;4.68;;
26718;SDS011;14326;50.794;6.060;2024-01-30T05:07:43;15.43;;;4.68;;
26718;SDS011;14326;50.794;6.060;2024-01-30T05:10:09;13.98;;;4.45;;
26718;SDS011;14326;50.794;6.060;2024-01-30T05:12:38;11.73;;;4.20;;
26718;SDS011;14326;50.794;6.060;2024-01-30T05:15:05;17.45;;;4.90;;
26718;SDS011;14326;50.794;6.060;2024-01-30T05:17:32;15.05;;;4.55;;
26718;SDS011;14326;50.794;6.060;2024-01-30T05:19:59;13.48;;;4.38;;
26718;SDS011;14326;50.794;6.060;2024-01-30T05:22:26;13.32;;;4.57;;
26718;SDS011;14326;50.794;6.060;2024-01-30T05:24:52;14.52;;;4.43;;
26718;SDS011;14326;50.794;6.060;2024-01-30T05:27:19;13.70;;;4.82;;
26718;SDS011;14326;50.794;6.060;2024-01-30T05:29:47;14.43;;;4.38;;
26718;SDS011;14326;50.794;6.060;2024-01-30T05:32:13;15.93;;;4.90;;
26718;SDS011;14326;50.794;6.060;2024-01-30T05:34:40;13.25;;;4.55;;
26718;SDS011;14326;50.794;6.060;2024-01-30T05:37:06;14.45;;;5.22;;
26718;SDS011;14326;50.794;6.060;2024-01-30T05:39:33;15.35;;;4.43;;
26718;SDS011;14326;50.794;6.060;2024-01-30T05:42:00;14.57;;;4.93;;
26718;SDS011;14326;50.794;6.060;2024-01-30T05:44:27;15.63;;;4.60;;
26718;SDS011;14326;50.794;6.060;2024-01-30T05:46:55;15.35;;;4.90;;
26718;SDS011;14326;50.794;6.060;2024-01-30T05:49:21;15.80;;;4.97;;
26718;SDS011;14326;50.794;6.060;2024-01-30T05:51:48;14.75;;;5.30;;
26718;SDS011;14326;50.794;6.060;2024-01-30T05:54:14;17.35;;;5.32;;
26718;SDS011;14326;50.794;6.060;2024-01-30T05:56:41;18.77;;;5.43;;
26718;SDS011;14326;50.794;6.060;2024-01-30T05:59:08;17.95;;;5.38;;
26718;SDS011;14326;50.794;6.060;2024-01-30T06:01:34;15.70;;;5.07;;
26718;SDS011;14326;50.794;6.060;2024-01-30T06:04:02;16.10;;;4.88;;
26718;SDS011;14326;50.794;6.060;2024-01-30T06:06:29;16.40;;;5.25;;
26718;SDS011;14326;50.794;6.060;2024-01-30T06:08:56;15.50;;;4.95;;
26718;SDS011;14326;50.794;6.060;2024-01-30T06:11:22;16.25;;;4.75;;
26718;SDS011;14326;50.794;6.060;2024-01-30T06:13:49;20.58;;;5.25;;
26718;SDS011;14326;50.794;6.060;2024-01-30T06:16:15;15.68;;;5.15;;
26718;SDS011;14326;50.794;6.060;2024-01-30T06:18:42;16.10;;;5.25;;
26718;SDS011;14326;50.794;6.060;2024-01-30T06:21:10;19.85;;;5.20;;
26718;SDS011;14326;50.794;6.060;2024-01-30T06:23:36;16.80;;;5.38;;
26718;SDS011;14326;50.794;6.060;2024-01-30T06:26:03;18.70;;;5.35;;
26718;SDS011;14326;50.794;6.060;2024-01-30T06:28:31;15.98;;;5.45;;
26718;SDS011;14326;50.794;6.060;2024-01-30T06:30:57;20.08;;;5.32;;
26718;SDS011;14326;50.794;6.060;2024-01-30T06:33:24;16.35;;;4.70;;
26718;SDS011;14326;50.794;6.060;2024-01-30T06:35:50;15.73;;;4.97;;
26718;SDS011;14326;50.794;6.060;2024-01-30T06:38:18;16.10;;;5.68;;
26718;SDS011;14326;50.794;6.060;2024-01-30T06:40:45;15.55;;;5.40;;
26718;SDS011;14326;50.794;6.060;2024-01-30T06:43:12;16.83;;;5.20;;
26718;SDS011;14326;50.794;6.060;2024-01-30T06:45:38;16.27;;;5.57;;
26718;SDS011;14326;50.794;6.060;2024-01-30T06:48:05;17.60;;;5.75;;
26718;SDS011;14326;50.794;6.060;2024-01-30T06:50:34;17.23;;;5.57;;
26718;SDS011;14326;50.794;6.060;2024-01-30T06:53:00;17.10;;;5.65;;
26718;SDS011;14326;50.794;6.060;2024-01-30T06:55:28;17.25;;;5.13;;
26718;SDS011;14326;50.794;6.060;2024-01-30T06:57:55;16.90;;;5.85;;
26718;SDS011;14326;50.794;6.060;2024-01-30T07:00:22;16.27;;;6.13;;
26718;SDS011;14326;50.794;6.060;2024-01-30T07:02:48;17.77;;;5.90;;
26718;SDS011;14326;50.794;6.060;2024-01-30T07:05:15;17.48;;;5.78;;
26718;SDS011;14326;50.794;6.060;2024-01-30T07:07:42;17.55;;;5.90;;
26718;SDS011;14326;50.794;6.060;2024-01-30T07:10:09;15.70;;;5.13;;
26718;SDS011;14326;50.794;6.060;2024-01-30T07:12:37;16.02;;;5.38;;
26718;SDS011;14326;50.794;6.060;2024-01-30T07:15:04;16.85;;;5.53;;
26718;SDS011;14326;50.794;6.060;2024-01-30T07:17:33;12.67;;;4.47;;
26718;SDS011;14326;50.794;6.060;2024-01-30T07:19:59;17.58;;;5.30;;
26718;SDS011;14326;50.794;6.060;2024-01-30T07:22:26;15.82;;;5.20;;
26718;SDS011;14326;50.794;6.060;2024-01-30T07:24:53;15.20;;;5.28;;
26718;SDS011;14326;50.794;6.060;2024-01-30T07:27:19;17.52;;;6.38;;
26718;SDS011;14326;50.794;6.060;2024-01-30T07:29:48;23.63;;;5.90;;
26718;SDS011;14326;50.794;6.060;2024-01-30T07:32:14;16.42;;;5.55;;
26718;SDS011;14326;50.794;6.060;2024-01-30T07:34:41;19.17;;;5.65;;
26718;SDS011;14326;50.794;6.060;2024-01-30T07:37:08;19.13;;;5.40;;
26718;SDS011;14326;50.794;6.060;2024-01-30T07:39:35;17.73;;;5.47;;
26718;SDS011;14326;50.794;6.060;2024-01-30T07:42:02;16.73;;;5.65;;
26718;SDS011;14326;50.794;6.060;2024-01-30T07:44:29;19.92;;;6.22;;
26718;SDS011;14326;50.794;6.060;2024-01-30T07:46:57;17.27;;;5.88;;
26718;SDS011;14326;50.794;6.060;2024-01-30T07:49:24;16.95;;;6.20;;
26718;SDS011;14326;50.794;6.060;2024-01-30T07:51:51;24.77;;;6.72;;
26718;SDS011;14326;50.794;6.060;2024-01-30T07:54:17;19.88;;;6.18;;
26718;SDS011;14326;50.794;6.060;2024-01-30T07:56:44;15.00;;;5.72;;
26718;SDS011;14326;50.794;6.060;2024-01-30T07:59:11;18.55;;;6.28;;
26718;SDS011;14326;50.794;6.060;2024-01-30T08:01:37;16.52;;;5.97;;
26718;SDS011;14326;50.794;6.060;2024-01-30T08:04:05;18.40;;;5.97;;
26718;SDS011;14326;50.794;6.060;2024-01-30T08:06:32;20.15;;;6.10;;
26718;SDS011;14326;50.794;6.060;2024-01-30T08:08:59;16.52;;;5.85;;
26718;SDS011;14326;50.794;6.060;2024-01-30T08:11:25;18.38;;;5.88;;
26718;SDS011;14326;50.794;6.060;2024-01-30T08:13:53;21.70;;;6.57;;
26718;SDS011;14326;50.794;6.060;2024-01-30T08:16:20;21.25;;;6.30;;
26718;SDS011;14326;50.794;6.060;2024-01-30T08:18:47;17.70;;;6.13;;
26718;SDS011;14326;50.794;6.060;2024-01-30T08:21:15;18.33;;;6.45;;
26718;SDS011;14326;50.794;6.060;2024-01-30T08:23:41;17.08;;;5.82;;
26718;SDS011;14326;50.794;6.060;2024-01-30T08:26:08;26.50;;;6.35;;
26718;SDS011;14326;50.794;6.060;2024-01-30T08:28:35;22.17;;;5.70;;
26718;SDS011;14326;50.794;6.060;2024-01-30T08:31:01;16.27;;;6.40;;
26718;SDS011;14326;50.794;6.060;2024-01-30T08:33:28;19.20;;;5.93;;
26718;SDS011;14326;50.794;6.060;2024-01-30T08:35:55;19.85;;;5.90;;
26718;SDS011;14326;50.794;6.060;2024-01-30T08:38:23;23.02;;;6.30;;
26718;SDS011;14326;50.794;6.060;2024-01-30T08:40:49;17.38;;;6.50;;
26718;SDS011;14326;50.794;6.060;2024-01-30T08:43:16;16.80;;;5.43;;
26718;SDS011;14326;50.794;6.060;2024-01-30T08:45:42;21.20;;;6.32;;
26718;SDS011;14326;50.794;6.060;2024-01-30T08:48:09;20.77;;;6.57;;
26718;SDS011;14326;50.794;6.060;2024-01-30T08:50:35;18.40;;;6.10;;
26718;SDS011;14326;50.794;6.060;2024-01-30T08:53:02;21.85;;;6.72;;
26718;SDS011;14326;50.794;6.060;2024-01-30T08:55:30;17.02;;;5.38;;
26718;SDS011;14326;50.794;6.060;2024-01-30T08:57:57;21.40;;;6.80;;
26718;SDS011;14326;50.794;6.060;2024-01-30T09:00:24;17.10;;;6.03;;
26718;SDS011;14326;50.794;6.060;2024-01-30T09:02:51;19.00;;;6.88;;
26718;SDS011;14326;50.794;6.060;2024-01-30T09:05:17;20.52;;;6.78;;
26718;SDS011;14326;50.794;6.060;2024-01-30T09:07:44;18.30;;;5.90;;
26718;SDS011;14326;50.794;6.060;2024-01-30T09:10:11;23.83;;;6.90;;
26718;SDS011;14326;50.794;6.060;2024-01-30T09:12:39;20.23;;;7.10;;
26718;SDS011;14326;50.794;6.060;2024-01-30T09:15:05;21.08;;;7.30;;
26718;SDS011;14326;50.794;6.060;2024-01-30T09:17:33;19.10;;;6.55;;
26718;SDS011;14326;50.794;6.060;2024-01-30T09:19:59;19.17;;;5.97;;
26718;SDS011;14326;50.794;6.060;2024-01-30T09:22:27;18.88;;;5.78;;
26718;SDS011;14326;50.794;6.060;2024-01-30T09:24:54;18.40;;;6.68;;
26718;SDS011;14326;50.794;6.060;2024-01-30T09:27:20;21.35;;;6.30;;
26718;SDS011;14326;50.794;6.060;2024-01-30T09:29:48;20.80;;;5.57;;
26718;SDS011;14326;50.794;6.060;2024-01-30T09:32:15;20.17;;;6.22;;
26718;SDS011;14326;50.794;6.060;2024-01-30T09:34:42;20.55;;;6.82;;
26718;SDS011;14326;50.794;6.060;2024-01-30T09:37:09;19.25;;;6.22;;
26718;SDS011;14326;50.794;6.060;2024-01-30T09:39:36;19.08;;;5.80;;
26718;SDS011;14326;50.794;6.060;2024-01-30T09:42:04;16.98;;;5.50;;
26718;SDS011;14326;50.794;6.060;2024-01-30T09:44:36;18.38;;;5.95;;
26718;SDS011;14326;50.794;6.060;2024-01-30T09:47:08;19.80;;;6.30;;
26718;SDS011;14326;50.794;6.060;2024-01-30T09:49:35;18.13;;;5.47;;
26718;SDS011;14326;50.794;6.060;2024-01-30T09:52:04;17.05;;;5.32;;
26718;SDS011;14326;50.794;6.060;2024-01-30T09:54:31;16.40;;;5.68;;
26718;SDS011;14326;50.794;6.060;2024-01-30T09:56:58;18.25;;;5.25;;
26718;SDS011;14326;50.794;6.060;2024-01-30T09:59:25;20.70;;;5.53;;
26718;SDS011;14326;50.794;6.060;2024-01-30T10:01:52;18.10;;;5.18;;
26718;SDS011;14326;50.794;6.060;2024-01-30T10:04:20;16.55;;;5.47;;
26718;SDS011;14326;50.794;6.060;2024-01-30T10:06:47;17.90;;;5.88;;
26718;SDS011;14326;50.794;6.060;2024-01-30T10:09:14;16.90;;;5.45;;
26718;SDS011;14326;50.794;6.060;2024-01-30T10:11:40;20.83;;;5.82;;
26718;SDS011;14326;50.794;6.060;2024-01-30T10:14:07;18.55;;;5.80;;
26718;SDS011;14326;50.794;6.060;2024-01-30T10:16:34;17.92;;;5.63;;
26718;SDS011;14326;50.794;6.060;2024-01-30T10:19:01;17.02;;;4.90;;
26718;SDS011;14326;50.794;6.060;2024-01-30T10:21:29;21.45;;;5.82;;
26718;SDS011;14326;50.794;6.060;2024-01-30T10:23:56;17.48;;;5.30;;
26718;SDS011;14326;50.794;6.060;2024-01-30T10:26:22;20.25;;;5.68;;
26718;SDS011;14326;50.794;6.060;2024-01-30T10:28:49;19.75;;;6.13;;
26718;SDS011;14326;50.794;6.060;2024-01-30T10:31:16;20.67;;;5.93;;
26718;SDS011;14326;50.794;6.060;2024-01-30T10:33:44;16.52;;;6.32;;
26718;SDS011;14326;50.794;6.060;2024-01-30T10:36:10;17.60;;;5.68;;
26718;SDS011;14326;50.794;6.060;2024-01-30T10:38:42;19.73;;;6.05;;
26718;SDS011;14326;50.794;6.060;2024-01-30T10:41:11;23.75;;;6.35;;
26718;SDS011;14326;50.794;6.060;2024-01-30T10:43:41;20.30;;;5.75;;
26718;SDS011;14326;50.794;6.060;2024-01-30T10:46:17;18.08;;;6.50;;
26718;SDS011;14326;50.794;6.060;2024-01-30T10:48:46;20.25;;;6.20;;
26718;SDS011;14326;50.794;6.060;2024-01-30T10:51:23;20.05;;;6.53;;
26718;SDS011;14326;50.794;6.060;2024-01-30T10:53:51;25.33;;;7.22;;
26718;SDS011;14326;50.794;6.060;2024-01-30T10:56:19;22.55;;;6.90;;
26718;SDS011;14326;50.794;6.060;2024-01-30T10:58:47;20.77;;;7.10;;
26718;SDS011;14326;50.794;6.060;2024-01-30T11:01:15;17.30;;;6.57;;
26718;SDS011;14326;50.794;6.060;2024-01-30T11:03:42;19.80;;;6.47;;
26718;SDS011;14326;50.794;6.060;2024-01-30T11:06:10;19.42;;;6.95;;
26718;SDS011;14326;50.794;6.060;2024-01-30T11:08:39;22.43;;;6.53;;
26718;SDS011;14326;50.794;6.060;2024-01-30T11:11:09;22.48;;;6.65;;
26718;SDS011;14326;50.794;6.060;2024-01-30T11:16:03;21.38;;;6.35;;
26718;SDS011;14326;50.794;6.060;2024-01-30T11:18:30;21.63;;;6.57;;
26718;SDS011;14326;50.794;6.060;2024-01-30T11:20:58;20.23;;;6.22;;
26718;SDS011;14326;50.794;6.060;2024-01-30T11:23:26;21.23;;;6.05;;
26718;SDS011;14326;50.794;6.060;2024-01-30T11:25:54;18.55;;;6.70;;
26718;SDS011;14326;50.794;6.060;2024-01-30T11:28:23;19.63;;;6.45;;
26718;SDS011;14326;50.794;6.060;2024-01-30T11:30:50;18.65;;;6.32;;
26718;SDS011;14326;50.794;6.060;2024-01-30T11:33:26;19.60;;;6.22;;
26718;SDS011;14326;50.794;6.060;2024-01-30T11:35:56;21.60;;;6.93;;
26718;SDS011;14326;50.794;6.060;2024-01-30T11:38:23;19.52;;;7.47;;
26718;SDS011;14326;50.794;6.060;2024-01-30T11:40:52;20.33;;;6.80;;
26718;SDS011;14326;50.794;6.060;2024-01-30T11:43:19;21.50;;;7.10;;
26718;SDS011;14326;50.794;6.060;2024-01-30T11:45:47;17.60;;;6.60;;
26718;SDS011;14326;50.794;6.060;2024-01-30T11:48:14;19.85;;;6.47;;
26718;SDS011;14326;50.794;6.060;2024-01-30T11:50:41;23.27;;;7.15;;
26718;SDS011;14326;50.794;6.060;2024-01-30T11:53:07;19.45;;;5.95;;
26718;SDS011;14326;50.794;6.060;2024-01-30T11:55:35;19.95;;;6.90;;
26718;SDS011;14326;50.794;6.060;2024-01-30T11:58:02;21.25;;;7.45;;
26718;SDS011;14326;50.794;6.060;2024-01-30T12:00:30;20.80;;;7.78;;
26718;SDS011;14326;50.794;6.060;2024-01-30T12:02:59;24.45;;;8.00;;
26718;SDS011;14326;50.794;6.060;2024-01-30T12:05:27;20.77;;;7.38;;
26718;SDS011;14326;50.794;6.060;2024-01-30T12:07:54;24.60;;;8.02;;
26718;SDS011;14326;50.794;6.060;2024-01-30T12:10:23;21.60;;;7.90;;
26718;SDS011;14326;50.794;6.060;2024-01-30T12:12:50;25.48;;;7.88;;
26718;SDS011;14326;50.794;6.060;2024-01-30T12:15:18;21.85;;;8.00;;
26718;SDS011;14326;50.794;6.060;2024-01-30T12:17:47;22.02;;;8.10;;
26718;SDS011;14326;50.794;6.060;2024-01-30T12:20:17;22.85;;;8.48;;
26718;SDS011;14326;50.794;6.060;2024-01-30T12:22:46;23.92;;;7.97;;
26718;SDS011;14326;50.794;6.060;2024-01-30T12:25:14;19.63;;;7.97;;
26718;SDS011;14326;50.794;6.060;2024-01-30T12:27:42;25.25;;;8.90;;
26718;SDS011;14326;50.794;6.060;2024-01-30T12:30:10;22.60;;;8.27;;
26718;SDS011;14326;50.794;6.060;2024-01-30T12:32:39;22.02;;;8.30;;
26718;SDS011;14326;50.794;6.060;2024-01-30T12:35:07;23.33;;;7.72;;
26718;SDS011;14326;50.794;6.060;2024-01-30T12:37:35;24.10;;;8.52;;
26718;SDS011;14326;50.794;6.060;2024-01-30T12:40:02;20.27;;;8.50;;
26718;SDS011;14326;50.794;6.060;2024-01-30T12:42:29;21.25;;;8.85;;
26718;SDS011;14326;50.794;6.060;2024-01-30T12:44:56;25.42;;;8.75;;
26718;SDS011;14326;50.794;6.060;2024-01-30T12:47:23;21.75;;;8.50;;
26718;SDS011;14326;50.794;6.060;2024-01-30T12:49:50;20.90;;;7.40;;
26718;SDS011;14326;50.794;6.060;2024-01-30T12:52:18;26.95;;;8.65;;
26718;SDS011;14326;50.794;6.060;2024-01-30T12:54:47;21.42;;;8.07;;
26718;SDS011;14326;50.794;6.060;2024-01-30T12:57:14;20.75;;;8.27;;
26718;SDS011;14326;50.794;6.060;2024-01-30T12:59:41;24.27;;;8.95;;
26718;SDS011;14326;50.794;6.060;2024-01-30T13:02:08;22.88;;;8.27;;
26718;SDS011;14326;50.794;6.060;2024-01-30T13:04:35;24.95;;;8.52;;
26718;SDS011;14326;50.794;6.060;2024-01-30T13:07:02;20.23;;;8.15;;
26718;SDS011;14326;50.794;6.060;2024-01-30T13:09:29;21.45;;;8.13;;
26718;SDS011;14326;50.794;6.060;2024-01-30T13:11:57;24.98;;;8.70;;
26718;SDS011;14326;50.794;6.060;2024-01-30T13:14:24;23.65;;;7.95;;
26718;SDS011;14326;50.794;6.060;2024-01-30T13:16:52;23.73;;;8.80;;
26718;SDS011;14326;50.794;6.060;2024-01-30T13:19:18;24.95;;;8.13;;
26718;SDS011;14326;50.794;6.060;2024-01-30T13:21:45;24.58;;;9.02;;
26718;SDS011;14326;50.794;6.060;2024-01-30T13:24:12;20.52;;;7.72;;
26718;SDS011;14326;50.794;6.060;2024-01-30T13:26:39;26.38;;;8.90;;
26718;SDS011;14326;50.794;6.060;2024-01-30T13:29:07;23.40;;;8.52;;
26718;SDS011;14326;50.794;6.060;2024-01-30T13:31:34;23.70;;;8.65;;
26718;SDS011;14326;50.794;6.060;2024-01-30T13:34:00;24.70;;;8.93;;
26718;SDS011;14326;50.794;6.060;2024-01-30T13:36:27;22.83;;;9.15;;
26718;SDS011;14326;50.794;6.060;2024-01-30T13:38:54;22.05;;;8.50;;
26718;SDS011;14326;50.794;6.060;2024-01-30T13:41:20;22.40;;;8.73;;
26718;SDS011;14326;50.794;6.060;2024-01-30T13:43:48;23.73;;;9.18;;
26718;SDS011;14326;50.794;6.060;2024-01-30T13:46:16;24.75;;;8.68;;
26718;SDS011;14326;50.794;6.060;2024-01-30T13:48:43;26.52;;;8.95;;
26718;SDS011;14326;50.794;6.060;2024-01-30T13:51:09;28.58;;;9.88;;
26718;SDS011;14326;50.794;6.060;2024-01-30T13:53:38;23.65;;;9.07;;
26718;SDS011;14326;50.794;6.060;2024-01-30T13:56:05;25.45;;;9.18;;
26718;SDS011;14326;50.794;6.060;2024-01-30T13:58:32;23.95;;;8.93;;
26718;SDS011;14326;50.794;6.060;2024-01-30T14:01:01;25.45;;;8.75;;
26718;SDS011;14326;50.794;6.060;2024-01-30T14:03:29;25.85;;;8.85;;
26718;SDS011;14326;50.794;6.060;2024-01-30T14:05:55;23.38;;;9.15;;
26718;SDS011;14326;50.794;6.060;2024-01-30T14:08:22;28.17;;;9.27;;
26718;SDS011;14326;50.794;6.060;2024-01-30T14:10:51;27.77;;;9.27;;
26718;SDS011;14326;50.794;6.060;2024-01-30T14:13:18;27.30;;;9.00;;
26718;SDS011;14326;50.794;6.060;2024-01-30T14:15:45;30.00;;;9.48;;
26718;SDS011;14326;50.794;6.060;2024-01-30T14:18:11;25.75;;;9.13;;
26718;SDS011;14326;50.794;6.060;2024-01-30T14:20:40;27.23;;;9.15;;
26718;SDS011;14326;50.794;6.060;2024-01-30T14:23:06;22.20;;;8.95;;
26718;SDS011;14326;50.794;6.060;2024-01-30T14:25:33;26.15;;;8.98;;
26718;SDS011;14326;50.794;6.060;2024-01-30T14:28:00;23.85;;;8.45;;
26718;SDS011;14326;50.794;6.060;2024-01-30T14:30:26;31.23;;;9.57;;
26718;SDS011;14326;50.794;6.060;2024-01-30T14:32:53;22.02;;;8.38;;
26718;SDS011;14326;50.794;6.060;2024-01-30T14:35:21;26.75;;;8.65;;
26718;SDS011;14326;50.794;6.060;2024-01-30T14:37:49;27.60;;;9.13;;
26718;SDS011;14326;50.794;6.060;2024-01-30T14:40:17;25.80;;;9.05;;
26718;SDS011;14326;50.794;6.060;2024-01-30T14:42:44;27.27;;;9.38;;
26718;SDS011;14326;50.794;6.060;2024-01-30T14:45:10;35.90;;;9.48;;
26718;SDS011;14326;50.794;6.060;2024-01-30T14:47:37;24.27;;;7.35;;